sensor_id;sensor_type;location;lat;lon;timestamp;temperature;humidity
61591;DHT22;71994;52.410;-1.966;2024-03-07T00:02:11;17.50;48.40
61591;DHT22;71994;52.410;-1.966;2024-03-07T00:05:23;17.50;48.50
61591;DHT22;71994;52.410;-1.966;2024-03-07T00:08:32;17.50;48.50
61591;DHT22;71994;52.410;-1.966;2024-03-07T00:11:42;17.40;48.50
61591;DHT22;71994;52.410;-1.966;2024-03-07T00:14:51;17.40;48.50
61591;DHT22;71994;52.410;-1.966;2024-03-07T00:17:58;17.30;48.60
61591;DHT22;71994;52.410;-1.966;2024-03-07T00:21:04;17.30;48.60
61591;DHT22;71994;52.410;-1.966;2024-03-07T00:24:13;17.20;48.50
61591;DHT22;71994;52.410;-1.966;2024-03-07T00:27:23;17.20;48.70
61591;DHT22;71994;52.410;-1.966;2024-03-07T00:30:30;17.10;48.50
61591;DHT22;71994;52.410;-1.966;2024-03-07T00:33:38;17.10;48.70
61591;DHT22;71994;52.410;-1.966;2024-03-07T00:36:45;17.10;48.70
61591;DHT22;71994;52.410;-1.966;2024-03-07T00:39:55;17.10;48.80
61591;DHT22;71994;52.410;-1.966;2024-03-07T00:43:05;17.00;49.00
61591;DHT22;71994;52.410;-1.966;2024-03-07T00:46:14;17.00;49.10
61591;DHT22;71994;52.410;-1.966;2024-03-07T00:49:22;17.00;49.10
61591;DHT22;71994;52.410;-1.966;2024-03-07T00:52:31;17.00;49.00
61591;DHT22;71994;52.410;-1.966;2024-03-07T00:55:40;17.00;49.10
61591;DHT22;71994;52.410;-1.966;2024-03-07T00:58:50;17.00;49.20
61591;DHT22;71994;52.410;-1.966;2024-03-07T01:01:56;17.00;49.10
61591;DHT22;71994;52.410;-1.966;2024-03-07T01:05:05;17.00;49.20
61591;DHT22;71994;52.410;-1.966;2024-03-07T01:08:16;16.90;49.20
61591;DHT22;71994;52.410;-1.966;2024-03-07T01:11:23;16.90;49.20
61591;DHT22;71994;52.410;-1.966;2024-03-07T01:14:33;16.80;49.30
61591;DHT22;71994;52.410;-1.966;2024-03-07T01:17:41;16.80;49.30
61591;DHT22;71994;52.410;-1.966;2024-03-07T01:20:48;16.90;49.30
61591;DHT22;71994;52.410;-1.966;2024-03-07T01:23:54;16.80;49.30
61591;DHT22;71994;52.410;-1.966;2024-03-07T01:27:07;16.80;49.10
61591;DHT22;71994;52.410;-1.966;2024-03-07T01:30:20;16.70;49.40
61591;DHT22;71994;52.410;-1.966;2024-03-07T01:33:33;16.70;49.50
61591;DHT22;71994;52.410;-1.966;2024-03-07T01:36:42;16.70;49.40
61591;DHT22;71994;52.410;-1.966;2024-03-07T01:39:48;16.70;49.40
61591;DHT22;71994;52.410;-1.966;2024-03-07T01:42:55;16.60;49.40
61591;DHT22;71994;52.410;-1.966;2024-03-07T01:46:07;16.60;49.30
61591;DHT22;71994;52.410;-1.966;2024-03-07T01:49:16;16.60;49.40
61591;DHT22;71994;52.410;-1.966;2024-03-07T01:52:22;16.50;49.40
61591;DHT22;71994;52.410;-1.966;2024-03-07T01:55:29;16.60;49.30
61591;DHT22;71994;52.410;-1.966;2024-03-07T01:58:41;16.50;49.40
61591;DHT22;71994;52.410;-1.966;2024-03-07T02:01:52;16.50;49.50
61591;DHT22;71994;52.410;-1.966;2024-03-07T02:04:59;16.50;49.40
61591;DHT22;71994;52.410;-1.966;2024-03-07T02:08:06;16.40;49.40
61591;DHT22;71994;52.410;-1.966;2024-03-07T02:11:14;16.40;49.60
61591;DHT22;71994;52.410;-1.966;2024-03-07T02:14:24;16.40;49.60
61591;DHT22;71994;52.410;-1.966;2024-03-07T02:17:35;16.40;49.10
61591;DHT22;71994;52.410;-1.966;2024-03-07T02:20:49;16.30;49.40
61591;DHT22;71994;52.410;-1.966;2024-03-07T02:23:57;16.30;49.50
61591;DHT22;71994;52.410;-1.966;2024-03-07T02:27:04;16.30;49.40
61591;DHT22;71994;52.410;-1.966;2024-03-07T02:30:13;16.30;49.40
61591;DHT22;71994;52.410;-1.966;2024-03-07T02:33:22;16.30;49.20
61591;DHT22;71994;52.410;-1.966;2024-03-07T02:36:32;16.20;49.50
61591;DHT22;71994;52.410;-1.966;2024-03-07T02:39:41;16.20;49.40
61591;DHT22;71994;52.410;-1.966;2024-03-07T02:42:50;16.20;49.40
61591;DHT22;71994;52.410;-1.966;2024-03-07T02:45:56;16.20;49.40
61591;DHT22;71994;52.410;-1.966;2024-03-07T02:49:10;16.20;49.40
61591;DHT22;71994;52.410;-1.966;2024-03-07T02:52:23;16.10;49.60
61591;DHT22;71994;52.410;-1.966;2024-03-07T02:55:30;16.10;49.60
61591;DHT22;71994;52.410;-1.966;2024-03-07T02:58:40;16.10;49.70
61591;DHT22;71994;52.410;-1.966;2024-03-07T03:01:46;16.10;49.50
61591;DHT22;71994;52.410;-1.966;2024-03-07T03:04:54;16.10;49.60
61591;DHT22;71994;52.410;-1.966;2024-03-07T03:08:05;16.10;49.50
61591;DHT22;71994;52.410;-1.966;2024-03-07T03:11:11;16.10;49.20
61591;DHT22;71994;52.410;-1.966;2024-03-07T03:14:18;16.00;49.50
61591;DHT22;71994;52.410;-1.966;2024-03-07T03:17:25;16.00;49.50
61591;DHT22;71994;52.410;-1.966;2024-03-07T03:20:31;16.00;49.40
61591;DHT22;71994;52.410;-1.966;2024-03-07T03:23:47;16.00;49.40
61591;DHT22;71994;52.410;-1.966;2024-03-07T03:26:54;15.90;49.50
61591;DHT22;71994;52.410;-1.966;2024-03-07T03:30:03;16.00;49.50
61591;DHT22;71994;52.410;-1.966;2024-03-07T03:33:10;15.90;49.60
61591;DHT22;71994;52.410;-1.966;2024-03-07T03:36:17;15.90;49.60
61591;DHT22;71994;52.410;-1.966;2024-03-07T03:39:31;15.80;49.70
61591;DHT22;71994;52.410;-1.966;2024-03-07T03:42:40;15.80;49.80
61591;DHT22;71994;52.410;-1.966;2024-03-07T03:45:47;15.90;49.70
61591;DHT22;71994;52.410;-1.966;2024-03-07T03:48:54;15.80;49.70
61591;DHT22;71994;52.410;-1.966;2024-03-07T03:52:00;15.80;49.60
61591;DHT22;71994;52.410;-1.966;2024-03-07T03:55:11;15.80;49.70
61591;DHT22;71994;52.410;-1.966;2024-03-07T03:58:18;15.80;49.80
61591;DHT22;71994;52.410;-1.966;2024-03-07T04:01:27;15.80;49.50
61591;DHT22;71994;52.410;-1.966;2024-03-07T04:04:34;15.80;49.60
61591;DHT22;71994;52.410;-1.966;2024-03-07T04:07:41;15.80;49.80
61591;DHT22;71994;52.410;-1.966;2024-03-07T04:10:51;15.70;49.90
61591;DHT22;71994;52.410;-1.966;2024-03-07T04:13:57;15.70;49.60
61591;DHT22;71994;52.410;-1.966;2024-03-07T04:17:04;15.70;49.80
61591;DHT22;71994;52.410;-1.966;2024-03-07T04:20:15;15.70;50.00
61591;DHT22;71994;52.410;-1.966;2024-03-07T04:23:25;15.70;49.90
61591;DHT22;71994;52.410;-1.966;2024-03-07T04:26:38;15.60;49.90
61591;DHT22;71994;52.410;-1.966;2024-03-07T04:29:49;15.70;50.00
61591;DHT22;71994;52.410;-1.966;2024-03-07T04:32:55;15.60;50.10
61591;DHT22;71994;52.410;-1.966;2024-03-07T04:36:03;15.60;50.10
61591;DHT22;71994;52.410;-1.966;2024-03-07T04:39:12;15.60;50.10
61591;DHT22;71994;52.410;-1.966;2024-03-07T04:42:31;15.60;50.20
61591;DHT22;71994;52.410;-1.966;2024-03-07T04:45:39;15.60;50.20
61591;DHT22;71994;52.410;-1.966;2024-03-07T04:48:48;15.60;50.20
61591;DHT22;71994;52.410;-1.966;2024-03-07T04:51:57;15.60;50.20
61591;DHT22;71994;52.410;-1.966;2024-03-07T04:55:05;15.60;50.20
61591;DHT22;71994;52.410;-1.966;2024-03-07T04:58:19;15.60;50.20
61591;DHT22;71994;52.410;-1.966;2024-03-07T05:01:26;15.60;50.10
61591;DHT22;71994;52.410;-1.966;2024-03-07T05:04:37;15.60;50.10
61591;DHT22;71994;52.410;-1.966;2024-03-07T05:07:44;15.60;50.20
61591;DHT22;71994;52.410;-1.966;2024-03-07T05:10:51;15.60;50.30
61591;DHT22;71994;52.410;-1.966;2024-03-07T05:14:04;15.50;50.20
61591;DHT22;71994;52.410;-1.966;2024-03-07T05:17:13;15.50;50.20
61591;DHT22;71994;52.410;-1.966;2024-03-07T05:20:27;15.50;50.20
61591;DHT22;71994;52.410;-1.966;2024-03-07T05:23:37;15.50;50.20
61591;DHT22;71994;52.410;-1.966;2024-03-07T05:26:45;15.50;50.20
61591;DHT22;71994;52.410;-1.966;2024-03-07T05:29:55;15.50;50.20
61591;DHT22;71994;52.410;-1.966;2024-03-07T05:33:02;15.50;50.30
61591;DHT22;71994;52.410;-1.966;2024-03-07T05:36:10;15.50;50.30
61591;DHT22;71994;52.410;-1.966;2024-03-07T05:39:27;15.50;50.30
61591;DHT22;71994;52.410;-1.966;2024-03-07T05:42:37;15.40;50.30
61591;DHT22;71994;52.410;-1.966;2024-03-07T05:45:48;15.40;50.30
61591;DHT22;71994;52.410;-1.966;2024-03-07T05:49:00;15.40;50.40
61591;DHT22;71994;52.410;-1.966;2024-03-07T05:52:14;15.40;50.30
61591;DHT22;71994;52.410;-1.966;2024-03-07T05:55:21;15.40;50.40
61591;DHT22;71994;52.410;-1.966;2024-03-07T05:58:28;15.30;50.40
61591;DHT22;71994;52.410;-1.966;2024-03-07T06:01:38;15.30;50.40
61591;DHT22;71994;52.410;-1.966;2024-03-07T06:04:50;15.30;50.40
61591;DHT22;71994;52.410;-1.966;2024-03-07T06:07:57;15.30;50.40
61591;DHT22;71994;52.410;-1.966;2024-03-07T06:11:03;15.30;50.20
61591;DHT22;71994;52.410;-1.966;2024-03-07T06:14:13;15.30;50.10
61591;DHT22;71994;52.410;-1.966;2024-03-07T06:17:23;15.40;50.00
61591;DHT22;71994;52.410;-1.966;2024-03-07T06:20:34;15.40;49.80
61591;DHT22;71994;52.410;-1.966;2024-03-07T06:23:41;15.50;49.70
61591;DHT22;71994;52.410;-1.966;2024-03-07T06:26:50;15.50;49.50
61591;DHT22;71994;52.410;-1.966;2024-03-07T06:30:03;15.50;49.40
61591;DHT22;71994;52.410;-1.966;2024-03-07T06:33:15;15.50;49.30
61591;DHT22;71994;52.410;-1.966;2024-03-07T06:36:23;15.50;49.30
61591;DHT22;71994;52.410;-1.966;2024-03-07T06:39:32;15.60;49.20
61591;DHT22;71994;52.410;-1.966;2024-03-07T06:42:39;15.60;49.20
61591;DHT22;71994;52.410;-1.966;2024-03-07T06:45:54;15.60;49.10
61591;DHT22;71994;52.410;-1.966;2024-03-07T06:49:03;15.60;49.10
61591;DHT22;71994;52.410;-1.966;2024-03-07T06:52:16;15.60;49.00
61591;DHT22;71994;52.410;-1.966;2024-03-07T06:55:25;15.60;49.00
61591;DHT22;71994;52.410;-1.966;2024-03-07T06:58:32;15.60;49.00
61591;DHT22;71994;52.410;-1.966;2024-03-07T07:01:39;15.60;49.00
61591;DHT22;71994;52.410;-1.966;2024-03-07T07:04:51;15.60;49.00
61591;DHT22;71994;52.410;-1.966;2024-03-07T07:07:57;15.50;49.10
61591;DHT22;71994;52.410;-1.966;2024-03-07T07:11:04;15.50;48.80
61591;DHT22;71994;52.410;-1.966;2024-03-07T07:14:13;15.50;48.70
61591;DHT22;71994;52.410;-1.966;2024-03-07T07:17:28;15.50;48.80
61591;DHT22;71994;52.410;-1.966;2024-03-07T07:20:37;15.50;48.90
61591;DHT22;71994;52.410;-1.966;2024-03-07T07:23:52;15.50;49.80
61591;DHT22;71994;52.410;-1.966;2024-03-07T07:26:59;15.50;50.00
61591;DHT22;71994;52.410;-1.966;2024-03-07T07:30:10;15.50;49.80
61591;DHT22;71994;52.410;-1.966;2024-03-07T07:33:18;15.60;50.40
61591;DHT22;71994;52.410;-1.966;2024-03-07T07:36:29;15.60;50.40
61591;DHT22;71994;52.410;-1.966;2024-03-07T07:39:36;15.70;50.60
61591;DHT22;71994;52.410;-1.966;2024-03-07T07:42:46;15.80;50.70
61591;DHT22;71994;52.410;-1.966;2024-03-07T07:45:52;15.90;51.10
61591;DHT22;71994;52.410;-1.966;2024-03-07T07:48:59;16.10;51.10
61591;DHT22;71994;52.410;-1.966;2024-03-07T07:52:08;16.20;50.70
61591;DHT22;71994;52.410;-1.966;2024-03-07T07:55:15;16.30;50.90
61591;DHT22;71994;52.410;-1.966;2024-03-07T07:58:22;16.40;50.60
61591;DHT22;71994;52.410;-1.966;2024-03-07T08:01:29;16.60;50.50
61591;DHT22;71994;52.410;-1.966;2024-03-07T08:04:37;16.60;50.30
61591;DHT22;71994;52.410;-1.966;2024-03-07T08:08:03;16.80;49.90
61591;DHT22;71994;52.410;-1.966;2024-03-07T08:11:23;16.90;49.80
61591;DHT22;71994;52.410;-1.966;2024-03-07T08:14:29;17.00;49.60
61591;DHT22;71994;52.410;-1.966;2024-03-07T08:17:36;17.00;49.40
61591;DHT22;71994;52.410;-1.966;2024-03-07T08:20:43;17.10;49.40
61591;DHT22;71994;52.410;-1.966;2024-03-07T08:23:52;17.10;49.20
61591;DHT22;71994;52.410;-1.966;2024-03-07T08:27:01;17.20;49.10
61591;DHT22;71994;52.410;-1.966;2024-03-07T08:30:18;17.20;48.90
61591;DHT22;71994;52.410;-1.966;2024-03-07T08:33:25;17.30;48.80
61591;DHT22;71994;52.410;-1.966;2024-03-07T08:36:32;17.40;48.70
61591;DHT22;71994;52.410;-1.966;2024-03-07T08:39:45;17.50;48.60
61591;DHT22;71994;52.410;-1.966;2024-03-07T08:42:54;17.50;48.40
61591;DHT22;71994;52.410;-1.966;2024-03-07T08:46:01;17.60;48.30
61591;DHT22;71994;52.410;-1.966;2024-03-07T08:49:07;17.60;48.20
61591;DHT22;71994;52.410;-1.966;2024-03-07T08:52:14;17.60;48.10
61591;DHT22;71994;52.410;-1.966;2024-03-07T08:55:25;17.60;48.10
61591;DHT22;71994;52.410;-1.966;2024-03-07T08:58:32;17.60;47.80
61591;DHT22;71994;52.410;-1.966;2024-03-07T09:01:39;17.50;48.00
61591;DHT22;71994;52.410;-1.966;2024-03-07T09:04:46;17.50;48.10
61591;DHT22;71994;52.410;-1.966;2024-03-07T09:07:54;17.50;48.20
61591;DHT22;71994;52.410;-1.966;2024-03-07T09:11:03;17.50;48.20
61591;DHT22;71994;52.410;-1.966;2024-03-07T09:14:12;17.40;48.10
61591;DHT22;71994;52.410;-1.966;2024-03-07T09:20:25;17.30;48.10
61591;DHT22;71994;52.410;-1.966;2024-03-07T09:23:34;17.20;48.20
61591;DHT22;71994;52.410;-1.966;2024-03-07T09:26:43;17.20;48.20
61591;DHT22;71994;52.410;-1.966;2024-03-07T09:29:53;17.20;48.30
61591;DHT22;71994;52.410;-1.966;2024-03-07T09:33:00;17.10;48.40
61591;DHT22;71994;52.410;-1.966;2024-03-07T09:36:10;17.10;48.50
61591;DHT22;71994;52.410;-1.966;2024-03-07T09:39:18;17.00;48.60
61591;DHT22;71994;52.410;-1.966;2024-03-07T09:42:27;17.00;48.80
61591;DHT22;71994;52.410;-1.966;2024-03-07T09:45:37;16.90;48.90
61591;DHT22;71994;52.410;-1.966;2024-03-07T09:48:45;16.90;48.90
61591;DHT22;71994;52.410;-1.966;2024-03-07T09:51:52;16.80;49.00
61591;DHT22;71994;52.410;-1.966;2024-03-07T09:54:59;16.80;49.00
61591;DHT22;71994;52.410;-1.966;2024-03-07T09:58:11;16.70;49.10
61591;DHT22;71994;52.410;-1.966;2024-03-07T10:01:20;16.70;49.40
61591;DHT22;71994;52.410;-1.966;2024-03-07T10:04:31;16.70;49.50
61591;DHT22;71994;52.410;-1.966;2024-03-07T10:07:40;16.80;49.30
61591;DHT22;71994;52.410;-1.966;2024-03-07T10:10:50;16.80;49.20
61591;DHT22;71994;52.410;-1.966;2024-03-07T10:14:02;16.90;49.20
61591;DHT22;71994;52.410;-1.966;2024-03-07T10:17:11;17.00;49.30
61591;DHT22;71994;52.410;-1.966;2024-03-07T10:20:18;17.00;49.00
61591;DHT22;71994;52.410;-1.966;2024-03-07T10:23:27;17.20;48.90
61591;DHT22;71994;52.410;-1.966;2024-03-07T10:26:34;17.30;48.70
61591;DHT22;71994;52.410;-1.966;2024-03-07T10:29:45;17.40;48.50
61591;DHT22;71994;52.410;-1.966;2024-03-07T10:32:55;17.50;48.40
61591;DHT22;71994;52.410;-1.966;2024-03-07T10:36:02;17.50;48.40
61591;DHT22;71994;52.410;-1.966;2024-03-07T10:39:13;17.60;48.30
61591;DHT22;71994;52.410;-1.966;2024-03-07T10:42:28;17.60;48.40
61591;DHT22;71994;52.410;-1.966;2024-03-07T10:45:44;17.60;48.30
61591;DHT22;71994;52.410;-1.966;2024-03-07T10:48:55;17.60;48.30
61591;DHT22;71994;52.410;-1.966;2024-03-07T10:52:12;17.60;48.20
61591;DHT22;71994;52.410;-1.966;2024-03-07T10:55:29;17.60;48.30
61591;DHT22;71994;52.410;-1.966;2024-03-07T10:58:50;17.60;48.20
61591;DHT22;71994;52.410;-1.966;2024-03-07T11:02:15;17.60;48.20
61591;DHT22;71994;52.410;-1.966;2024-03-07T11:05:28;17.50;48.10
61591;DHT22;71994;52.410;-1.966;2024-03-07T11:13:16;17.50;48.20
61591;DHT22;71994;52.410;-1.966;2024-03-07T11:16:42;17.40;48.30
61591;DHT22;71994;52.410;-1.966;2024-03-07T11:20:20;17.40;48.30
61591;DHT22;71994;52.410;-1.966;2024-03-07T11:23:50;17.50;48.40
61591;DHT22;71994;52.410;-1.966;2024-03-07T11:27:09;17.50;48.40
61591;DHT22;71994;52.410;-1.966;2024-03-07T11:30:53;17.60;48.30
61591;DHT22;71994;52.410;-1.966;2024-03-07T11:34:18;17.60;48.20
61591;DHT22;71994;52.410;-1.966;2024-03-07T11:37:47;17.70;48.10
61591;DHT22;71994;52.410;-1.966;2024-03-07T11:41:02;17.80;48.00
61591;DHT22;71994;52.410;-1.966;2024-03-07T11:44:33;17.80;48.00
61591;DHT22;71994;52.410;-1.966;2024-03-07T11:48:00;17.90;47.90
61591;DHT22;71994;52.410;-1.966;2024-03-07T11:51:21;18.00;47.90
61591;DHT22;71994;52.410;-1.966;2024-03-07T11:54:38;18.10;47.80
61591;DHT22;71994;52.410;-1.966;2024-03-07T11:58:16;18.10;47.80
61591;DHT22;71994;52.410;-1.966;2024-03-07T12:01:59;18.20;47.80
61591;DHT22;71994;52.410;-1.966;2024-03-07T12:05:26;18.30;47.70
61591;DHT22;71994;52.410;-1.966;2024-03-07T12:08:34;18.30;47.60
61591;DHT22;71994;52.410;-1.966;2024-03-07T12:11:47;18.40;47.40
61591;DHT22;71994;52.410;-1.966;2024-03-07T12:15:00;18.40;47.40
61591;DHT22;71994;52.410;-1.966;2024-03-07T12:18:14;18.40;47.50
61591;DHT22;71994;52.410;-1.966;2024-03-07T12:21:21;18.40;47.50
61591;DHT22;71994;52.410;-1.966;2024-03-07T12:24:30;18.40;47.80
61591;DHT22;71994;52.410;-1.966;2024-03-07T12:27:40;18.30;47.70
61591;DHT22;71994;52.410;-1.966;2024-03-07T12:30:51;18.30;47.60
61591;DHT22;71994;52.410;-1.966;2024-03-07T12:33:59;18.30;47.60
61591;DHT22;71994;52.410;-1.966;2024-03-07T12:37:05;18.20;47.70
61591;DHT22;71994;52.410;-1.966;2024-03-07T12:40:14;18.20;48.00
61591;DHT22;71994;52.410;-1.966;2024-03-07T12:43:25;18.10;48.20
61591;DHT22;71994;52.410;-1.966;2024-03-07T12:46:33;18.10;48.00
61591;DHT22;71994;52.410;-1.966;2024-03-07T12:49:46;18.10;47.70
61591;DHT22;71994;52.410;-1.966;2024-03-07T12:52:52;18.10;48.50
61591;DHT22;71994;52.410;-1.966;2024-03-07T12:55:58;18.00;48.20
61591;DHT22;71994;52.410;-1.966;2024-03-07T12:59:11;18.00;48.20
61591;DHT22;71994;52.410;-1.966;2024-03-07T13:02:18;18.00;48.50
61591;DHT22;71994;52.410;-1.966;2024-03-07T13:05:29;17.90;48.60
61591;DHT22;71994;52.410;-1.966;2024-03-07T13:08:37;17.80;48.50
61591;DHT22;71994;52.410;-1.966;2024-03-07T13:11:43;17.70;48.60
61591;DHT22;71994;52.410;-1.966;2024-03-07T13:14:54;17.60;48.50
61591;DHT22;71994;52.410;-1.966;2024-03-07T13:18:06;17.60;48.80
61591;DHT22;71994;52.410;-1.966;2024-03-07T13:21:16;17.60;48.90
61591;DHT22;71994;52.410;-1.966;2024-03-07T13:24:27;17.50;49.00
61591;DHT22;71994;52.410;-1.966;2024-03-07T13:27:40;17.40;49.20
61591;DHT22;71994;52.410;-1.966;2024-03-07T13:30:50;17.40;49.20
61591;DHT22;71994;52.410;-1.966;2024-03-07T13:34:00;17.40;49.20
61591;DHT22;71994;52.410;-1.966;2024-03-07T13:37:06;17.30;49.20
61591;DHT22;71994;52.410;-1.966;2024-03-07T13:40:13;17.40;49.30
61591;DHT22;71994;52.410;-1.966;2024-03-07T13:43:29;17.30;49.30
61591;DHT22;71994;52.410;-1.966;2024-03-07T13:46:40;17.30;49.30
61591;DHT22;71994;52.410;-1.966;2024-03-07T13:49:48;17.20;49.30
61591;DHT22;71994;52.410;-1.966;2024-03-07T13:52:55;17.20;49.40
61591;DHT22;71994;52.410;-1.966;2024-03-07T13:56:39;17.10;49.50
61591;DHT22;71994;52.410;-1.966;2024-03-07T14:00:20;17.10;49.60
61591;DHT22;71994;52.410;-1.966;2024-03-07T14:07:39;17.00;49.70
61591;DHT22;71994;52.410;-1.966;2024-03-07T14:22:52;16.90;49.90
61591;DHT22;71994;52.410;-1.966;2024-03-07T14:29:52;16.90;50.10
61591;DHT22;71994;52.410;-1.966;2024-03-07T14:33:17;16.90;50.00
61591;DHT22;71994;52.410;-1.966;2024-03-07T14:36:35;16.80;50.00
61591;DHT22;71994;52.410;-1.966;2024-03-07T14:40:04;16.80;50.10
61591;DHT22;71994;52.410;-1.966;2024-03-07T14:43:13;16.80;50.10
61591;DHT22;71994;52.410;-1.966;2024-03-07T14:46:20;16.80;50.30
61591;DHT22;71994;52.410;-1.966;2024-03-07T14:49:30;16.80;50.10
61591;DHT22;71994;52.410;-1.966;2024-03-07T14:52:37;16.80;50.10
61591;DHT22;71994;52.410;-1.966;2024-03-07T14:55:46;16.70;50.00
61591;DHT22;71994;52.410;-1.966;2024-03-07T14:58:53;16.80;50.20
61591;DHT22;71994;52.410;-1.966;2024-03-07T15:02:00;16.80;50.30
61591;DHT22;71994;52.410;-1.966;2024-03-07T15:05:11;16.80;50.20
61591;DHT22;71994;52.410;-1.966;2024-03-07T15:08:19;16.70;50.20
61591;DHT22;71994;52.410;-1.966;2024-03-07T15:11:33;16.70;50.30
61591;DHT22;71994;52.410;-1.966;2024-03-07T15:14:40;16.60;50.40
61591;DHT22;71994;52.410;-1.966;2024-03-07T15:17:47;16.60;50.40
61591;DHT22;71994;52.410;-1.966;2024-03-07T15:20:53;16.60;50.50
61591;DHT22;71994;52.410;-1.966;2024-03-07T15:24:01;16.60;50.50
61591;DHT22;71994;52.410;-1.966;2024-03-07T15:27:11;16.60;50.70
61591;DHT22;71994;52.410;-1.966;2024-03-07T15:30:18;16.60;50.70
61591;DHT22;71994;52.410;-1.966;2024-03-07T15:33:24;16.70;50.50
61591;DHT22;71994;52.410;-1.966;2024-03-07T15:36:31;16.80;50.50
61591;DHT22;71994;52.410;-1.966;2024-03-07T15:39:37;16.90;50.30
61591;DHT22;71994;52.410;-1.966;2024-03-07T15:42:55;17.00;50.20
61591;DHT22;71994;52.410;-1.966;2024-03-07T15:46:05;17.10;49.90
61591;DHT22;71994;52.410;-1.966;2024-03-07T15:49:13;17.20;49.70
61591;DHT22;71994;52.410;-1.966;2024-03-07T15:52:20;17.40;49.50
61591;DHT22;71994;52.410;-1.966;2024-03-07T15:55:27;17.50;49.30
61591;DHT22;71994;52.410;-1.966;2024-03-07T15:58:39;17.50;49.10
61591;DHT22;71994;52.410;-1.966;2024-03-07T16:01:46;17.60;49.10
61591;DHT22;71994;52.410;-1.966;2024-03-07T16:04:56;17.60;49.00
61591;DHT22;71994;52.410;-1.966;2024-03-07T16:08:09;17.60;48.80
61591;DHT22;71994;52.410;-1.966;2024-03-07T16:11:19;17.70;48.90
61591;DHT22;71994;52.410;-1.966;2024-03-07T16:14:39;17.60;48.80
61591;DHT22;71994;52.410;-1.966;2024-03-07T16:17:46;17.60;48.80
61591;DHT22;71994;52.410;-1.966;2024-03-07T16:20:52;17.60;48.80
61591;DHT22;71994;52.410;-1.966;2024-03-07T16:24:02;17.60;48.70
61591;DHT22;71994;52.410;-1.966;2024-03-07T16:27:10;17.60;48.80
61591;DHT22;71994;52.410;-1.966;2024-03-07T16:30:20;17.60;48.80
61591;DHT22;71994;52.410;-1.966;2024-03-07T16:33:27;17.50;48.90
61591;DHT22;71994;52.410;-1.966;2024-03-07T16:36:38;17.50;48.90
61591;DHT22;71994;52.410;-1.966;2024-03-07T16:39:54;17.50;49.00
61591;DHT22;71994;52.410;-1.966;2024-03-07T16:43:23;17.50;49.00
61591;DHT22;71994;52.410;-1.966;2024-03-07T16:46:34;17.40;49.00
61591;DHT22;71994;52.410;-1.966;2024-03-07T16:49:41;17.40;48.90
61591;DHT22;71994;52.410;-1.966;2024-03-07T16:52:53;17.30;49.00
61591;DHT22;71994;52.410;-1.966;2024-03-07T16:55:59;17.30;49.00
61591;DHT22;71994;52.410;-1.966;2024-03-07T16:59:07;17.30;49.00
61591;DHT22;71994;52.410;-1.966;2024-03-07T17:02:18;17.30;49.00
61591;DHT22;71994;52.410;-1.966;2024-03-07T17:05:29;17.20;49.00
61591;DHT22;71994;52.410;-1.966;2024-03-07T17:08:36;17.10;49.10
61591;DHT22;71994;52.410;-1.966;2024-03-07T17:11:43;17.10;49.20
61591;DHT22;71994;52.410;-1.966;2024-03-07T17:14:50;17.10;49.30
61591;DHT22;71994;52.410;-1.966;2024-03-07T17:18:11;17.10;49.40
61591;DHT22;71994;52.410;-1.966;2024-03-07T17:21:18;17.10;49.60
61591;DHT22;71994;52.410;-1.966;2024-03-07T17:24:24;17.00;49.70
61591;DHT22;71994;52.410;-1.966;2024-03-07T17:27:33;17.00;49.80
61591;DHT22;71994;52.410;-1.966;2024-03-07T17:30:40;17.00;49.80
61591;DHT22;71994;52.410;-1.966;2024-03-07T17:33:50;17.00;49.60
61591;DHT22;71994;52.410;-1.966;2024-03-07T17:36:59;17.00;50.20
61591;DHT22;71994;52.410;-1.966;2024-03-07T17:40:09;17.00;50.40
61591;DHT22;71994;52.410;-1.966;2024-03-07T17:43:18;16.90;50.50
61591;DHT22;71994;52.410;-1.966;2024-03-07T17:46:24;16.90;50.10
61591;DHT22;71994;52.410;-1.966;2024-03-07T17:49:34;16.90;50.90
61591;DHT22;71994;52.410;-1.966;2024-03-07T17:52:43;17.00;51.30
61591;DHT22;71994;52.410;-1.966;2024-03-07T17:55:49;17.10;51.10
61591;DHT22;71994;52.410;-1.966;2024-03-07T17:58:57;17.10;50.90
61591;DHT22;71994;52.410;-1.966;2024-03-07T18:02:07;17.20;50.70
61591;DHT22;71994;52.410;-1.966;2024-03-07T18:05:20;17.40;50.50
61591;DHT22;71994;52.410;-1.966;2024-03-07T18:08:30;17.50;50.30
61591;DHT22;71994;52.410;-1.966;2024-03-07T18:11:37;17.60;49.90
61591;DHT22;71994;52.410;-1.966;2024-03-07T18:14:44;17.70;49.60
61591;DHT22;71994;52.410;-1.966;2024-03-07T18:17:54;17.80;49.50
61591;DHT22;71994;52.410;-1.966;2024-03-07T18:21:04;17.90;49.20
61591;DHT22;71994;52.410;-1.966;2024-03-07T18:24:12;18.00;49.10
61591;DHT22;71994;52.410;-1.966;2024-03-07T18:27:19;18.10;48.80
61591;DHT22;71994;52.410;-1.966;2024-03-07T18:30:25;18.10;48.80
61591;DHT22;71994;52.410;-1.966;2024-03-07T18:33:33;18.10;48.50
61591;DHT22;71994;52.410;-1.966;2024-03-07T18:36:42;18.10;48.50
61591;DHT22;71994;52.410;-1.966;2024-03-07T18:39:48;18.10;48.40
61591;DHT22;71994;52.410;-1.966;2024-03-07T18:42:58;18.10;48.50
61591;DHT22;71994;52.410;-1.966;2024-03-07T18:46:09;18.10;48.40
61591;DHT22;71994;52.410;-1.966;2024-03-07T18:49:18;18.10;48.40
61591;DHT22;71994;52.410;-1.966;2024-03-07T18:52:27;18.00;48.40
61591;DHT22;71994;52.410;-1.966;2024-03-07T18:55:37;18.00;48.50
61591;DHT22;71994;52.410;-1.966;2024-03-07T18:58:47;18.00;48.50
61591;DHT22;71994;52.410;-1.966;2024-03-07T19:01:56;17.90;48.50
61591;DHT22;71994;52.410;-1.966;2024-03-07T19:05:06;17.80;48.50
61591;DHT22;71994;52.410;-1.966;2024-03-07T19:08:21;17.80;48.60
61591;DHT22;71994;52.410;-1.966;2024-03-07T19:11:32;17.80;48.70
61591;DHT22;71994;52.410;-1.966;2024-03-07T19:14:41;17.70;48.70
61591;DHT22;71994;52.410;-1.966;2024-03-07T19:17:48;17.70;48.70
61591;DHT22;71994;52.410;-1.966;2024-03-07T19:20:55;17.70;48.90
61591;DHT22;71994;52.410;-1.966;2024-03-07T19:24:05;17.70;49.00
61591;DHT22;71994;52.410;-1.966;2024-03-07T19:27:13;17.70;49.10
61591;DHT22;71994;52.410;-1.966;2024-03-07T19:30:22;17.70;49.30
61591;DHT22;71994;52.410;-1.966;2024-03-07T19:33:31;17.80;49.40
61591;DHT22;71994;52.410;-1.966;2024-03-07T19:36:40;17.80;49.70
61591;DHT22;71994;52.410;-1.966;2024-03-07T19:39:50;17.90;49.90
61591;DHT22;71994;52.410;-1.966;2024-03-07T19:42:57;18.10;50.10
61591;DHT22;71994;52.410;-1.966;2024-03-07T19:46:07;18.10;50.10
61591;DHT22;71994;52.410;-1.966;2024-03-07T19:49:17;18.30;50.50
61591;DHT22;71994;52.410;-1.966;2024-03-07T19:52:23;18.40;50.60
61591;DHT22;71994;52.410;-1.966;2024-03-07T19:55:32;18.60;50.40
61591;DHT22;71994;52.410;-1.966;2024-03-07T19:58:38;18.60;50.70
61591;DHT22;71994;52.410;-1.966;2024-03-07T20:01:50;18.70;50.90
61591;DHT22;71994;52.410;-1.966;2024-03-07T20:04:56;18.90;50.60
61591;DHT22;71994;52.410;-1.966;2024-03-07T20:08:04;18.90;50.60
61591;DHT22;71994;52.410;-1.966;2024-03-07T20:11:18;19.00;50.20